createdAt,value
2023-01-17T00:02:23.090Z,97952.48
2023-01-17T00:05:09.572Z,97946.17
2023-01-17T00:07:55.956Z,97940.61
2023-01-17T00:10:26.152Z,97936.70
2023-01-17T00:12:59.657Z,97930.38
2023-01-17T00:15:29.349Z,97930.30
2023-01-17T00:17:57.435Z,97917.80
2023-01-17T00:20:49.681Z,97917.47
2023-01-17T00:23:42.797Z,97907.96
2023-01-17T00:26:14.682Z,97905.15
2023-01-17T00:28:43.823Z,97900.48
2023-01-17T00:31:13.940Z,97897.16
2023-01-17T00:33:41.820Z,97894.66
2023-01-17T00:36:10.922Z,97889.71
2023-01-17T00:38:41.037Z,97885.47
2023-01-17T00:41:11.832Z,97884.23
2023-01-17T00:43:58.643Z,97881.86
2023-01-17T00:46:45.243Z,97880.52
2023-01-17T00:49:31.370Z,97878.66
2023-01-17T00:52:17.912Z,97875.88
2023-01-17T00:55:04.196Z,97867.30
2023-01-17T00:57:50.547Z,97853.68
2023-01-17T01:00:37.437Z,97848.17
2023-01-17T01:03:29.025Z,97856.14
2023-01-17T01:06:15.760Z,97867.98
2023-01-17T01:09:02.253Z,97871.13
2023-01-17T01:11:48.779Z,97866.73
2023-01-17T01:14:35.333Z,97865.62
2023-01-17T01:17:21.913Z,97863.23
2023-01-17T01:20:08.024Z,97863.19
2023-01-17T01:22:54.239Z,97857.14
2023-01-17T01:25:40.852Z,97852.20
2023-01-17T01:28:32.243Z,97841.12
2023-01-17T01:31:20.343Z,97834.46
2023-01-17T01:33:48.325Z,97819.54
2023-01-17T01:36:15.997Z,97822.00
2023-01-17T01:38:43.752Z,97818.70
2023-01-17T01:41:11.439Z,97815.54
2023-01-17T01:43:45.171Z,97806.88
2023-01-17T01:46:38.045Z,97812.27
2023-01-17T01:49:18.936Z,97807.60
2023-01-17T01:51:52.536Z,97802.40
2023-01-17T01:54:23.901Z,97803.52
2023-01-17T01:56:53.438Z,97797.34
2023-01-17T01:59:22.679Z,97792.02
2023-01-17T02:01:53.036Z,97787.77
2023-01-17T02:04:22.646Z,97788.45
2023-01-17T02:06:59.078Z,97784.75
2023-01-17T02:09:27.675Z,97785.95
2023-01-17T02:11:55.616Z,97779.46
2023-01-17T02:14:23.304Z,97779.58
2023-01-17T02:17:03.922Z,97781.98
2023-01-17T02:19:50.344Z,97775.92
2023-01-17T02:22:26.924Z,97775.23
2023-01-17T02:25:16.436Z,97777.13
2023-01-17T02:28:06.669Z,97776.11
2023-01-17T02:30:39.434Z,97780.11
2023-01-17T02:33:19.207Z,97780.59
2023-01-17T02:36:04.224Z,97778.60
2023-01-17T02:38:44.177Z,97769.88
2023-01-17T02:41:36.921Z,97767.51
2023-01-17T02:44:05.034Z,97764.11
2023-01-17T02:46:32.691Z,97760.38
2023-01-17T02:49:00.679Z,97758.48
2023-01-17T02:51:38.916Z,97757.34
2023-01-17T02:54:23.952Z,97755.37
2023-01-17T02:57:10.022Z,97750.62
2023-01-17T03:00:01.323Z,97749.89
2023-01-17T03:02:38.005Z,97754.77
2023-01-17T03:05:22.884Z,97752.08
2023-01-17T03:07:52.145Z,97754.02
2023-01-17T03:10:21.007Z,97747.73
2023-01-17T03:12:48.681Z,97750.83
2023-01-17T03:15:20.330Z,97749.34
2023-01-17T03:17:50.767Z,97753.02
2023-01-17T03:20:18.731Z,97757.73
2023-01-17T03:22:47.134Z,97755.95
2023-01-17T03:25:14.829Z,97752.56
2023-01-17T03:27:42.512Z,97748.02
2023-01-17T03:30:10.814Z,97746.11
2023-01-17T03:32:38.568Z,97743.61
2023-01-17T03:35:06.785Z,97736.84
2023-01-17T03:37:34.541Z,97743.61
2023-01-17T03:40:02.206Z,97742.85
2023-01-17T03:42:29.886Z,97745.34
2023-01-17T03:44:57.633Z,97743.34
2023-01-17T03:47:25.316Z,97746.05
2023-01-17T03:49:52.952Z,97742.45
2023-01-17T03:52:20.693Z,97738.64
2023-01-17T03:54:48.515Z,97742.98
2023-01-17T03:57:16.161Z,97745.42
2023-01-17T03:59:43.824Z,97745.27
2023-01-17T04:02:12.366Z,97747.11
2023-01-17T04:04:40.296Z,97743.69
2023-01-17T04:07:07.940Z,97748.70
2023-01-17T04:09:35.665Z,97744.15
2023-01-17T04:12:03.667Z,97740.11
2023-01-17T04:14:31.368Z,97742.08
2023-01-17T04:16:59.917Z,97742.85
2023-01-17T04:19:27.675Z,97737.70
2023-01-17T04:21:55.389Z,97735.91
2023-01-17T04:24:23.136Z,97733.59
2023-01-17T04:26:50.858Z,97733.55
2023-01-17T04:29:18.575Z,97735.92
2023-01-17T04:31:47.666Z,97739.08
2023-01-17T04:34:15.323Z,97733.60
2023-01-17T04:36:42.981Z,97737.35
2023-01-17T04:39:10.675Z,97739.33
2023-01-17T04:41:38.578Z,97743.44
2023-01-17T04:44:06.326Z,97746.86
2023-01-17T04:46:34.235Z,97754.21
2023-01-17T04:49:01.974Z,97757.76
2023-01-17T04:51:29.779Z,97752.64
2023-01-17T04:53:57.492Z,97751.88
2023-01-17T04:56:25.161Z,97758.20
2023-01-17T04:58:52.855Z,97766.98
2023-01-17T05:01:20.684Z,97771.35
2023-01-17T05:03:48.434Z,97776.86
2023-01-17T05:06:16.116Z,97775.02
2023-01-17T05:08:43.891Z,97779.02
2023-01-17T05:11:11.529Z,97773.86
2023-01-17T05:13:39.246Z,97774.31
2023-01-17T05:16:07.175Z,97777.35
2023-01-17T05:18:34.888Z,97780.29
2023-01-17T05:21:03.380Z,97780.70
2023-01-17T05:23:31.196Z,97783.23
2023-01-17T05:25:59.404Z,97784.45
2023-01-17T05:28:27.161Z,97781.76
2023-01-17T05:30:54.870Z,97775.91
2023-01-17T05:33:22.553Z,97775.63
2023-01-17T05:35:50.579Z,97779.34
2023-01-17T05:38:18.356Z,97772.38
2023-01-17T05:40:46.089Z,97776.31
2023-01-17T05:43:13.802Z,97776.27
2023-01-17T05:45:41.559Z,97775.69
2023-01-17T05:48:09.534Z,97783.92
2023-01-17T05:50:38.181Z,97785.64
2023-01-17T05:53:09.092Z,97787.20
2023-01-17T05:55:37.932Z,97795.63
2023-01-17T05:58:07.075Z,97798.39
2023-01-17T06:00:35.056Z,97802.21
2023-01-17T06:03:02.726Z,97801.73
2023-01-17T06:05:30.799Z,97802.53
2023-01-17T06:07:58.580Z,97797.95
2023-01-17T06:10:27.006Z,97798.65
2023-01-17T06:13:09.733Z,97800.46
2023-01-17T06:15:38.838Z,97799.53
2023-01-17T06:18:11.223Z,97801.59
2023-01-17T06:20:39.645Z,97802.23
2023-01-17T06:23:11.228Z,97798.40
2023-01-17T06:25:40.988Z,97807.27
2023-01-17T06:28:08.613Z,97802.51
2023-01-17T06:30:36.495Z,97806.55
2023-01-17T06:33:05.006Z,97805.85
2023-01-17T06:35:33.337Z,97802.83
2023-01-17T06:38:01.056Z,97806.29
2023-01-17T06:40:29.252Z,97803.18
2023-01-17T06:43:01.813Z,97809.18
2023-01-17T06:45:31.842Z,97813.16
2023-01-17T06:48:04.148Z,97820.08
2023-01-17T06:50:32.685Z,97820.68
2023-01-17T06:53:02.816Z,97829.45
2023-01-17T06:55:33.726Z,97834.56
2023-01-17T06:58:03.094Z,97842.01
2023-01-17T07:00:35.168Z,97846.36
2023-01-17T07:03:03.352Z,97848.05
2023-01-17T07:05:31.127Z,97851.73
2023-01-17T07:07:58.851Z,97847.44
2023-01-17T07:10:26.491Z,97848.62
2023-01-17T07:12:59.702Z,97848.94
2023-01-17T07:15:27.859Z,97843.42
2023-01-17T07:17:55.590Z,97842.73
2023-01-17T07:20:23.232Z,97839.05
2023-01-17T07:22:50.891Z,97842.64
2023-01-17T07:25:20.121Z,97846.02
2023-01-17T07:27:47.916Z,97843.56
2023-01-17T07:30:16.061Z,97834.64
2023-01-17T07:32:43.735Z,97838.08
2023-01-17T07:35:11.396Z,97843.08
2023-01-17T07:37:39.216Z,97838.02
2023-01-17T07:40:07.284Z,97834.56
2023-01-17T07:42:34.911Z,97833.93
2023-01-17T07:45:02.659Z,97842.00
2023-01-17T07:47:30.357Z,97846.52
2023-01-17T07:49:58.177Z,97858.17
2023-01-17T07:52:25.882Z,97862.85
2023-01-17T07:54:53.752Z,97866.77
2023-01-17T07:57:21.577Z,97880.11
2023-01-17T07:59:52.620Z,97887.89
2023-01-17T08:02:22.324Z,97894.17
2023-01-17T08:04:50.155Z,97893.90
2023-01-17T08:07:17.905Z,97893.58
2023-01-17T08:09:49.563Z,97897.89
2023-01-17T08:12:17.609Z,97888.49
2023-01-17T08:14:45.301Z,97885.30
2023-01-17T08:17:16.644Z,97875.27
2023-01-17T08:19:44.931Z,97869.95
2023-01-17T08:22:12.689Z,97879.55
2023-01-17T08:24:40.499Z,97882.28
2023-01-17T08:27:09.109Z,97883.96
2023-01-17T08:29:37.172Z,97880.85
2023-01-17T08:32:05.009Z,97877.18
2023-01-17T08:34:33.409Z,97874.63
2023-01-17T08:37:01.093Z,97873.92
2023-01-17T08:39:28.828Z,97868.58
2023-01-17T08:41:57.404Z,97865.42
2023-01-17T08:44:25.166Z,97862.86
2023-01-17T08:46:52.961Z,97864.45
2023-01-17T08:49:20.657Z,97862.04
2023-01-17T08:51:48.411Z,97856.25
2023-01-17T08:54:16.702Z,97850.80
2023-01-17T08:56:44.511Z,97852.81
2023-01-17T08:59:12.572Z,97852.36
2023-01-17T09:01:46.101Z,97851.34
2023-01-17T09:04:14.429Z,97847.38
2023-01-17T09:06:45.420Z,97846.52
2023-01-17T09:09:13.725Z,97843.58
2023-01-17T09:11:41.627Z,97844.44
2023-01-17T09:14:12.542Z,97849.11
2023-01-17T09:16:40.638Z,97854.32
2023-01-17T09:19:09.085Z,97858.38
2023-01-17T09:21:36.777Z,97863.51
2023-01-17T09:24:04.513Z,97864.88
2023-01-17T09:26:32.311Z,97868.99
2023-01-17T09:29:00.160Z,97866.55
2023-01-17T09:31:27.873Z,97868.79
2023-01-17T09:33:57.210Z,97869.38
2023-01-17T09:36:28.893Z,97872.02
2023-01-17T09:38:58.168Z,97879.45
2023-01-17T09:41:35.227Z,97884.70
2023-01-17T09:44:08.209Z,97882.77
2023-01-17T09:46:42.837Z,97880.63
2023-01-17T09:49:39.358Z,97884.04
2023-01-17T09:52:10.259Z,97883.44
2023-01-17T10:06:19.210Z,97890.59
2023-01-17T10:09:02.932Z,97896.87
2023-01-17T10:12:10.899Z,97897.83
2023-01-17T10:15:02.311Z,97898.99
2023-01-17T10:17:35.765Z,97901.55
2023-01-17T10:20:39.146Z,97896.38
2023-01-17T10:23:24.580Z,97902.14
2023-01-17T10:25:52.748Z,97904.50
2023-01-17T10:28:30.987Z,97908.52
2023-01-17T10:31:03.459Z,97911.45
2023-01-17T10:33:47.092Z,97909.98
2023-01-17T10:36:21.192Z,97912.87
2023-01-17T10:38:51.701Z,97908.56
2023-01-17T10:41:57.318Z,97905.22
2023-01-17T10:44:29.582Z,97909.65
2023-01-17T10:46:58.807Z,97911.06
2023-01-17T10:49:27.643Z,97916.34
2023-01-17T10:52:02.969Z,97918.39
2023-01-17T10:55:07.983Z,97918.27
2023-01-17T10:57:41.069Z,97921.95
2023-01-17T11:00:45.694Z,97916.77
2023-01-17T11:03:15.343Z,97917.88
2023-01-17T11:05:42.468Z,97919.69
2023-01-17T11:08:13.995Z,97926.72
2023-01-17T11:10:46.480Z,97926.15
2023-01-17T11:13:39.641Z,97920.58
2023-01-17T11:16:09.660Z,97919.31
2023-01-17T11:18:38.880Z,97918.30
2023-01-17T11:21:11.356Z,97916.05
2023-01-17T11:23:44.434Z,97915.15
2023-01-17T11:26:22.282Z,97915.45
2023-01-17T11:28:48.575Z,97919.29
2023-01-17T11:31:15.845Z,97922.57
2023-01-17T11:33:47.647Z,97927.21
2023-01-17T11:36:21.640Z,97929.67
2023-01-17T11:39:02.073Z,97934.45
2023-01-17T11:41:39.909Z,97931.52
2023-01-17T11:44:34.646Z,97933.41
2023-01-17T11:47:13.233Z,97934.98
2023-01-17T11:49:41.515Z,97934.23
2023-01-17T11:52:20.467Z,97932.15
2023-01-17T11:54:47.838Z,97941.63
2023-01-17T11:57:27.488Z,97941.33
2023-01-17T12:00:18.614Z,97939.25
2023-01-17T12:03:20.000Z,97937.84
2023-01-17T12:06:07.260Z,97937.98
2023-01-17T12:08:44.336Z,97935.73
2023-01-17T12:11:25.202Z,97937.13
2023-01-17T12:14:00.635Z,97934.14
2023-01-17T12:17:03.893Z,97934.48
2023-01-17T12:20:00.154Z,97936.59
2023-01-17T12:22:38.504Z,97932.83
2023-01-17T12:25:24.087Z,97933.05
2023-01-17T12:28:45.542Z,97940.60
2023-01-17T12:31:32.719Z,97934.59
2023-01-17T12:34:17.830Z,97934.05
2023-01-17T12:36:56.895Z,97929.94
2023-01-17T12:39:32.435Z,97934.61
2023-01-17T12:42:20.561Z,97937.85
2023-01-17T12:44:57.106Z,97939.67
2023-01-17T12:47:23.803Z,97947.30
2023-01-17T12:50:22.002Z,97947.46
2023-01-17T12:52:54.313Z,97944.59
2023-01-17T12:55:51.187Z,97944.95
2023-01-17T12:58:28.644Z,97943.60
2023-01-17T13:01:06.698Z,97942.86
2023-01-17T13:04:02.564Z,97946.36
2023-01-17T13:06:57.619Z,97943.80
2023-01-17T13:09:24.147Z,97941.21
2023-01-17T13:12:02.611Z,97941.98
2023-01-17T13:14:28.968Z,97938.85
2023-01-17T13:16:59.709Z,97931.75
2023-01-17T13:19:54.060Z,97925.67
2023-01-17T13:22:23.399Z,97926.14
2023-01-17T13:25:14.325Z,97929.91
2023-01-17T13:28:06.329Z,97934.70
2023-01-17T13:30:49.008Z,97937.21
2023-01-17T13:33:34.158Z,97937.00
2023-01-17T13:36:09.359Z,97931.08
2023-01-17T13:38:56.817Z,97933.96
2023-01-17T13:41:54.130Z,97933.98
2023-01-17T13:44:26.930Z,97935.75
2023-01-17T13:47:03.527Z,97939.79
2023-01-17T13:49:33.433Z,97943.55
2023-01-17T13:52:20.119Z,97947.77
2023-01-17T13:54:49.136Z,97947.85
2023-01-17T13:57:39.338Z,97949.72
2023-01-17T14:00:15.733Z,97952.80
2023-01-17T14:02:42.931Z,97951.89
2023-01-17T14:05:17.763Z,97951.10
2023-01-17T14:07:47.197Z,97949.98
2023-01-17T14:10:33.724Z,97954.56
2023-01-17T14:13:00.668Z,97958.63
2023-01-17T14:15:30.571Z,97961.88
2023-01-17T14:18:04.098Z,97964.83
2023-01-17T14:20:39.587Z,97971.67
2023-01-17T14:23:27.475Z,97977.96
2023-01-17T14:25:58.592Z,97982.98
2023-01-17T14:28:28.715Z,97985.48
2023-01-17T14:30:57.423Z,97992.90
2023-01-17T14:33:34.096Z,97995.27
2023-01-17T14:36:04.147Z,98005.07
2023-01-17T14:38:32.928Z,98006.72
2023-01-17T14:41:21.045Z,98009.55
2023-01-17T14:43:49.789Z,98016.45
2023-01-17T14:46:23.268Z,98021.66
2023-01-17T14:48:51.726Z,98020.23
2023-01-17T14:51:24.119Z,98024.79
2023-01-17T14:54:02.436Z,98030.70
2023-01-17T14:56:30.708Z,98043.64
2023-01-17T14:59:20.418Z,98042.81
2023-01-17T15:02:07.205Z,98053.93
2023-01-17T15:04:38.346Z,98055.61
2023-01-17T15:07:04.685Z,98052.36
2023-01-17T15:09:36.596Z,98053.95
2023-01-17T15:12:03.576Z,98042.75
2023-01-17T15:14:37.357Z,98046.19
2023-01-17T15:17:25.687Z,98052.48
2023-01-17T15:20:02.693Z,98050.42
2023-01-17T15:22:29.546Z,98053.42
2023-01-17T15:24:57.827Z,98067.42
2023-01-17T15:27:24.907Z,98077.83
2023-01-17T15:29:51.686Z,98083.42
2023-01-17T15:32:24.065Z,98084.42
2023-01-17T15:34:51.879Z,98088.90
2023-01-17T15:37:39.898Z,98092.77
2023-01-17T15:40:19.067Z,98097.63
2023-01-17T15:42:55.951Z,98107.58
2023-01-17T15:45:27.555Z,98125.10
2023-01-17T15:47:54.069Z,98139.17
2023-01-17T15:50:25.105Z,98151.67
2023-01-17T15:52:52.927Z,98160.14
2023-01-17T15:55:39.989Z,98163.55
2023-01-17T15:58:26.989Z,98173.20
2023-01-17T16:00:54.224Z,98174.86
2023-01-17T16:03:31.064Z,98175.80
2023-01-17T16:05:59.792Z,98173.66
2023-01-17T16:08:38.478Z,98173.45
2023-01-17T16:11:06.635Z,98175.75
2023-01-17T16:13:37.867Z,98176.36
2023-01-17T16:16:20.564Z,98179.52
2023-01-17T16:18:48.267Z,98184.05
2023-01-17T16:21:19.123Z,98186.42
2023-01-17T16:23:45.849Z,98197.15
2023-01-17T16:26:12.241Z,98197.79
2023-01-17T16:28:38.577Z,98197.05
2023-01-17T16:31:05.334Z,98196.44
2023-01-17T16:33:31.956Z,98194.38
2023-01-17T16:35:58.245Z,98199.04
2023-01-17T16:38:24.666Z,98195.88
2023-01-17T16:40:51.247Z,98200.46
2023-01-17T16:43:18.742Z,98199.52
2023-01-17T16:45:49.812Z,98192.89
2023-01-17T16:48:18.967Z,98195.67
2023-01-17T16:50:49.763Z,98195.79
2023-01-17T16:53:20.906Z,98195.16
2023-01-17T16:55:50.283Z,98190.84
2023-01-17T16:58:17.279Z,98184.61
2023-01-17T17:00:43.564Z,98182.48
2023-01-17T17:03:16.068Z,98182.81
2023-01-17T17:05:44.369Z,98184.69
2023-01-17T17:08:10.949Z,98185.31
2023-01-17T17:10:37.276Z,98180.50
2023-01-17T17:13:03.763Z,98182.10
2023-01-17T17:15:30.166Z,98179.42
2023-01-17T17:17:56.553Z,98181.75
2023-01-17T17:20:25.082Z,98178.15
2023-01-17T17:22:51.730Z,98180.44
2023-01-17T17:25:18.640Z,98185.77
2023-01-17T17:27:45.139Z,98184.14
2023-01-17T17:30:12.057Z,98179.50
2023-01-17T17:32:38.546Z,98180.70
2023-01-17T17:35:05.704Z,98182.40
2023-01-17T17:37:31.975Z,98183.27
2023-01-17T17:39:58.332Z,98185.90
2023-01-17T17:42:24.960Z,98189.20
2023-01-17T17:44:51.553Z,98186.60
2023-01-17T17:47:17.825Z,98185.98
2023-01-17T17:49:44.162Z,98184.05
2023-01-17T17:52:10.555Z,98173.80
2023-01-17T17:54:36.861Z,98169.20
2023-01-17T17:57:03.510Z,98162.42
2023-01-17T17:59:30.590Z,98161.27
2023-01-17T18:01:59.052Z,98165.34
2023-01-17T18:04:26.340Z,98162.77
2023-01-17T18:06:56.882Z,98164.63
2023-01-17T18:09:23.463Z,98165.07
2023-01-17T18:11:49.757Z,98170.00
2023-01-17T18:14:17.005Z,98173.10
2023-01-17T18:16:44.085Z,98169.85
2023-01-17T18:19:16.712Z,98167.20
2023-01-17T18:21:43.492Z,98167.41
2023-01-17T18:24:12.218Z,98175.51
2023-01-17T18:26:47.590Z,98180.86
2023-01-17T18:29:15.858Z,98180.66
2023-01-17T18:31:43.551Z,98181.50
2023-01-17T18:34:13.352Z,98186.20
2023-01-17T18:36:40.274Z,98193.02
2023-01-17T18:39:12.938Z,98191.85
2023-01-17T18:41:39.251Z,98186.38
2023-01-17T18:44:06.568Z,98185.41
2023-01-17T18:46:34.208Z,98185.16
2023-01-17T18:49:00.637Z,98183.28
2023-01-17T18:51:29.263Z,98184.08
2023-01-17T18:53:55.704Z,98193.02
2023-01-17T18:56:22.493Z,98193.05
2023-01-17T18:58:50.239Z,98195.23
2023-01-17T19:01:21.983Z,98201.48
2023-01-17T19:03:50.728Z,98205.60
2023-01-17T19:06:20.254Z,98212.25
2023-01-17T19:08:48.543Z,98219.41
2023-01-17T19:11:14.897Z,98221.70
2023-01-17T19:13:41.342Z,98228.81
2023-01-17T19:16:12.865Z,98232.58
2023-01-17T19:18:39.271Z,98242.67
2023-01-17T19:21:11.692Z,98249.05
2023-01-17T19:23:38.797Z,98256.95
2023-01-17T19:26:07.894Z,98261.99
2023-01-17T19:28:41.790Z,98270.60
2023-01-17T19:31:14.668Z,98272.61
2023-01-17T19:33:43.237Z,98278.39
2023-01-17T19:36:15.395Z,98276.13
2023-01-17T19:38:49.440Z,98282.05
2023-01-17T19:41:26.052Z,98284.73
2023-01-17T19:44:05.755Z,98288.42
2023-01-17T19:46:33.042Z,98294.83
2023-01-17T19:48:59.811Z,98292.45
2023-01-17T19:51:27.381Z,98293.32
2023-01-17T19:53:55.841Z,98299.15
2023-01-17T19:56:24.658Z,98300.34
2023-01-17T19:58:51.664Z,98300.24
2023-01-17T20:01:25.921Z,98304.22
2023-01-17T20:03:52.712Z,98305.68
2023-01-17T20:06:22.114Z,98307.48
2023-01-17T20:08:48.909Z,98306.25
2023-01-17T20:11:19.022Z,98307.58
2023-01-17T20:13:47.148Z,98308.70
2023-01-17T20:16:15.961Z,98314.98
2023-01-17T20:18:43.466Z,98322.14
2023-01-17T20:21:16.423Z,98322.20
2023-01-17T20:23:43.879Z,98325.11
2023-01-17T20:26:11.183Z,98325.13
2023-01-17T20:28:39.824Z,98323.45
2023-01-17T20:31:11.987Z,98323.66
2023-01-17T20:33:39.515Z,98325.48
2023-01-17T20:36:10.915Z,98327.38
2023-01-17T20:38:44.582Z,98327.34
2023-01-17T20:41:13.800Z,98324.55
2023-01-17T20:43:41.900Z,98320.79
2023-01-17T20:46:08.992Z,98320.20
2023-01-17T20:48:37.106Z,98317.52
2023-01-17T20:51:11.073Z,98315.08
2023-01-17T20:53:39.328Z,98319.52
2023-01-17T20:56:08.152Z,98318.77
2023-01-17T20:58:34.771Z,98313.07
2023-01-17T21:01:01.404Z,98310.20
2023-01-17T21:03:28.532Z,98312.18
2023-01-17T21:06:03.840Z,98313.20
2023-01-17T21:08:32.509Z,98312.71
2023-01-17T21:10:59.078Z,98318.86
2023-01-17T21:13:25.853Z,98320.81
2023-01-17T21:15:53.043Z,98323.02
2023-01-17T21:18:21.153Z,98325.87
2023-01-17T21:20:48.137Z,98324.31
2023-01-17T21:23:18.066Z,98327.02
2023-01-17T21:25:55.682Z,98323.63
2023-01-17T21:28:24.169Z,98327.43
2023-01-17T21:30:51.394Z,98332.25
2023-01-17T21:33:19.228Z,98334.09
2023-01-17T21:35:46.031Z,98330.73
2023-01-17T21:38:13.627Z,98330.14
2023-01-17T21:40:40.609Z,98329.93
2023-01-17T21:43:07.273Z,98331.80
2023-01-17T21:45:37.870Z,98327.48
2023-01-17T21:48:06.047Z,98331.32
2023-01-17T21:50:33.837Z,98329.17
2023-01-17T21:53:00.245Z,98330.92
2023-01-17T21:55:45.769Z,98330.08
2023-01-17T21:58:46.621Z,98325.95
2023-01-17T22:01:21.659Z,98322.25
2023-01-17T22:03:55.081Z,98321.13
2023-01-17T22:06:23.802Z,98317.23
2023-01-17T22:08:50.181Z,98315.71
2023-01-17T22:11:19.591Z,98314.79
2023-01-17T22:13:46.690Z,98318.16
2023-01-17T22:16:15.110Z,98312.47
2023-01-17T22:18:42.759Z,98313.69
2023-01-17T22:21:19.268Z,98318.86
2023-01-17T22:23:57.251Z,98318.39
2023-01-17T22:26:28.916Z,98314.45
2023-01-17T22:28:58.498Z,98310.09
2023-01-17T22:31:27.200Z,98309.55
2023-01-17T22:33:56.430Z,98311.83
2023-01-17T22:36:25.707Z,98312.39
2023-01-17T22:38:52.037Z,98307.48
2023-01-17T22:41:21.571Z,98318.05
2023-01-17T22:43:52.552Z,98320.90
2023-01-17T22:46:21.916Z,98317.52
2023-01-17T22:48:48.649Z,98325.98
2023-01-17T22:51:17.233Z,98324.14
2023-01-17T22:53:54.770Z,98325.12
2023-01-17T22:56:32.275Z,98329.38
2023-01-17T22:59:03.228Z,98328.43
2023-01-17T23:01:32.070Z,98325.16
2023-01-17T23:04:01.355Z,98324.84
2023-01-17T23:06:30.269Z,98319.86
2023-01-17T23:08:58.958Z,98316.74
2023-01-17T23:11:40.105Z,98317.05
2023-01-17T23:14:21.866Z,98318.27
2023-01-17T23:17:06.600Z,98317.44
2023-01-17T23:19:35.425Z,98316.80
2023-01-17T23:22:16.065Z,98307.71
2023-01-17T23:24:46.734Z,98305.92
2023-01-17T23:27:51.395Z,98307.11
2023-01-17T23:30:18.615Z,98312.75
2023-01-17T23:32:48.133Z,98312.09
2023-01-17T23:35:15.996Z,98308.86
2023-01-17T23:38:00.866Z,98307.62
2023-01-17T23:40:27.636Z,98303.08
2023-01-17T23:43:12.999Z,98307.19
2023-01-17T23:45:39.731Z,98311.69
2023-01-17T23:48:10.874Z,98306.05
2023-01-17T23:50:39.512Z,98302.04
2023-01-17T23:53:06.536Z,98299.31
2023-01-17T23:55:38.898Z,98300.91
2023-01-17T23:58:07.735Z,98299.58
